createdAt,value
2023-04-10T00:08:36.638Z,12.60
2023-04-10T00:12:08.709Z,12.27
2023-04-10T00:15:58.411Z,12.73
2023-04-10T00:19:35.505Z,12.85
2023-04-10T00:23:28.268Z,12.68
2023-04-10T00:27:21.180Z,13.23
2023-04-10T00:30:42.672Z,13.30
2023-04-10T00:34:17.684Z,13.02
2023-04-10T00:42:08.034Z,12.70
2023-04-10T00:46:08.708Z,13.33
2023-04-10T00:49:49.549Z,13.07
2023-04-10T01:02:43.259Z,12.48
2023-04-10T01:06:56.138Z,12.23
2023-04-10T01:10:40.766Z,13.37
2023-04-10T01:26:11.441Z,11.97
2023-04-10T01:29:53.699Z,11.83
2023-04-10T01:33:14.025Z,11.63
2023-04-10T01:36:30.356Z,11.13
2023-04-10T01:39:39.362Z,11.80
2023-04-10T01:43:01.063Z,11.73
2023-04-10T01:46:08.694Z,12.07
2023-04-10T01:49:23.233Z,12.65
2023-04-10T01:52:58.570Z,11.75
2023-04-10T01:56:20.954Z,12.27
2023-04-10T01:59:35.222Z,12.63
2023-04-10T02:02:59.323Z,12.07
2023-04-10T02:06:44.617Z,13.40
2023-04-10T02:10:44.590Z,12.27
2023-04-10T02:14:43.538Z,11.43
2023-04-10T02:18:02.888Z,12.63
2023-04-10T02:21:31.330Z,12.37
2023-04-10T02:24:49.138Z,12.82
2023-04-10T02:28:13.718Z,13.73
2023-04-10T02:31:25.736Z,13.32
2023-04-10T02:34:35.115Z,12.27
2023-04-10T02:37:52.214Z,13.87
2023-04-10T02:41:27.262Z,13.57
2023-04-10T02:44:45.428Z,13.30
2023-04-10T02:47:57.671Z,13.60
2023-04-10T02:55:23.878Z,13.47
2023-04-10T02:58:52.029Z,13.25
2023-04-10T03:06:56.217Z,12.35
2023-04-10T03:10:43.755Z,12.20
2023-04-10T03:14:13.159Z,14.60
2023-04-10T03:17:39.692Z,13.07
2023-04-10T03:21:09.105Z,12.07
2023-04-10T03:24:15.258Z,12.38
2023-04-10T03:27:34.117Z,12.83
2023-04-10T03:30:55.100Z,14.60
2023-04-10T03:34:28.657Z,14.32
2023-04-10T03:37:34.896Z,13.50
2023-04-10T03:40:41.980Z,12.93
2023-04-10T03:43:50.882Z,14.10
2023-04-10T03:46:55.668Z,13.80
2023-04-10T03:50:15.053Z,12.73
2023-04-10T03:53:37.779Z,11.50
2023-04-10T03:57:05.886Z,13.45
2023-04-10T04:00:53.661Z,13.60
2023-04-10T04:04:30.219Z,12.13
2023-04-10T04:08:10.889Z,13.38
2023-04-10T04:11:24.495Z,10.45
2023-04-10T04:14:33.397Z,12.10
2023-04-10T04:18:07.999Z,13.37
2023-04-10T04:21:35.393Z,12.93
2023-04-10T04:25:09.941Z,12.60
2023-04-10T04:28:19.526Z,12.73
2023-04-10T04:31:49.114Z,14.45
2023-04-10T04:39:27.476Z,13.50
2023-04-10T04:43:27.445Z,13.23
2023-04-10T05:15:17.071Z,13.27
2023-04-10T05:18:40.868Z,14.53
2023-04-10T05:22:32.604Z,10.32
2023-04-10T05:25:53.894Z,11.00
2023-04-10T05:29:52.841Z,13.75
2023-04-10T05:33:04.133Z,13.57
2023-04-10T05:40:12.296Z,14.32
2023-04-10T05:43:18.838Z,13.45
2023-04-10T05:46:25.213Z,11.73
2023-04-10T05:49:44.010Z,13.73
2023-04-10T05:53:04.057Z,13.83
2023-04-10T05:56:11.531Z,13.05
2023-04-10T05:59:15.341Z,15.43
2023-04-10T06:03:00.398Z,13.75
2023-04-10T06:06:09.686Z,14.40
2023-04-10T06:14:39.109Z,13.80
2023-04-10T06:31:42.912Z,13.27
2023-04-10T06:39:25.874Z,12.93
2023-04-10T06:43:10.726Z,13.05
2023-04-10T07:31:10.739Z,7.57
2023-04-10T07:35:04.165Z,9.43
2023-04-10T07:38:26.516Z,9.80
2023-04-10T07:42:08.882Z,9.77
2023-04-10T07:45:18.200Z,9.98
2023-04-10T07:48:28.915Z,9.73
2023-04-10T07:51:57.265Z,9.43
2023-04-10T07:55:06.177Z,9.90
2023-04-10T07:58:19.725Z,10.00
2023-04-10T08:01:50.115Z,8.15
2023-04-10T08:05:14.217Z,8.00
2023-04-10T08:08:29.897Z,8.23
2023-04-10T08:11:49.493Z,8.85
2023-04-10T08:15:08.076Z,9.02
2023-04-10T08:18:26.704Z,7.72
2023-04-10T08:25:34.064Z,8.57
2023-04-10T08:29:06.897Z,8.05
2023-04-10T08:32:41.629Z,7.80
2023-04-10T08:36:01.328Z,6.20
2023-04-10T08:39:23.164Z,6.60
2023-04-10T08:42:33.903Z,6.70
2023-04-10T08:46:01.365Z,7.20
2023-04-10T08:49:52.202Z,7.13
2023-04-10T08:53:14.034Z,6.68
2023-04-10T08:56:48.633Z,4.53
2023-04-10T09:07:49.157Z,6.13
2023-04-10T09:11:09.076Z,6.18
2023-04-10T09:19:55.043Z,6.43
2023-04-10T09:23:42.021Z,6.45
2023-04-10T09:27:53.095Z,6.63
2023-04-10T09:32:07.141Z,6.13
2023-04-10T09:39:58.388Z,6.53
2023-04-10T10:06:41.336Z,5.57
2023-04-10T10:23:27.338Z,6.55
2023-04-10T10:35:22.971Z,6.13
2023-04-10T10:42:45.083Z,5.78
2023-04-10T10:45:56.583Z,6.63
2023-04-10T10:49:01.364Z,5.68
2023-04-10T10:52:38.938Z,6.22
2023-04-10T10:55:42.916Z,7.00
2023-04-10T10:59:12.705Z,6.97
2023-04-10T11:02:28.305Z,6.60
2023-04-10T11:06:15.367Z,5.43
2023-04-10T11:10:11.016Z,5.95
2023-04-10T11:13:28.276Z,6.40
2023-04-10T11:16:51.733Z,6.53
2023-04-10T11:20:25.960Z,6.07
2023-04-10T11:23:37.064Z,5.82
2023-04-10T11:26:48.739Z,6.20
2023-04-10T11:30:38.583Z,5.73
2023-04-10T11:34:05.898Z,4.43
2023-04-10T11:38:20.405Z,6.18
2023-04-10T11:41:12.838Z,6.05
2023-04-10T11:44:31.759Z,6.82
2023-04-10T11:47:48.787Z,5.50
2023-04-10T11:50:57.171Z,5.13
2023-04-10T11:54:56.099Z,5.60
2023-04-10T11:58:32.642Z,6.93
2023-04-10T12:01:44.334Z,5.97
2023-04-10T12:05:10.939Z,5.83
2023-04-10T12:08:17.074Z,5.75
2023-04-10T12:11:37.234Z,5.60
2023-04-10T12:14:49.003Z,6.93
2023-04-10T12:17:55.316Z,6.78
2023-04-10T12:21:04.748Z,5.93
2023-04-10T12:24:52.983Z,5.63
2023-04-10T12:28:05.379Z,6.40
2023-04-10T12:31:43.565Z,6.93
2023-04-10T12:35:04.936Z,6.47
2023-04-10T12:38:08.928Z,6.53
2023-04-10T12:41:12.827Z,6.35
2023-04-10T12:44:17.126Z,6.22
2023-04-10T12:47:26.916Z,6.28
2023-04-10T12:50:32.081Z,5.40
2023-04-10T12:53:56.741Z,5.63
2023-04-10T12:57:09.548Z,6.25
2023-04-10T13:00:15.409Z,5.70
2023-04-10T13:03:19.891Z,5.82
2023-04-10T13:06:22.972Z,6.00
2023-04-10T13:09:26.442Z,5.30
2023-04-10T13:12:30.437Z,4.68
2023-04-10T13:15:35.673Z,5.10
2023-04-10T13:18:44.976Z,4.88
2023-04-10T13:21:56.136Z,5.10
2023-04-10T13:25:06.472Z,5.60
2023-04-10T13:28:12.727Z,5.10
2023-04-10T13:31:40.208Z,4.53
2023-04-10T13:34:53.164Z,5.10
2023-04-10T13:37:59.913Z,4.75
2023-04-10T13:41:04.222Z,4.60
2023-04-10T13:44:10.883Z,4.30
2023-04-10T13:47:40.611Z,5.35
2023-04-10T13:50:44.048Z,4.85
2023-04-10T13:53:49.277Z,4.90
2023-04-10T14:00:47.744Z,4.82
2023-04-10T14:04:01.341Z,4.13
2023-04-10T14:07:12.292Z,4.28
2023-04-10T14:10:36.746Z,4.60
2023-04-10T14:13:41.149Z,4.30
2023-04-10T14:17:09.296Z,4.55
2023-04-10T14:21:08.844Z,5.13
2023-04-10T14:38:42.295Z,4.82
2023-04-10T15:21:49.358Z,4.90
2023-04-10T15:25:23.784Z,4.80
2023-04-10T15:28:50.965Z,4.50
2023-04-10T15:32:38.364Z,4.70
2023-04-10T17:10:43.016Z,5.10
2023-04-10T17:25:53.303Z,6.30
2023-04-10T17:29:35.590Z,5.97
2023-04-10T17:33:22.759Z,6.85
2023-04-10T17:45:24.578Z,6.83
2023-04-10T17:48:52.301Z,6.97
2023-04-10T17:52:06.030Z,6.85
2023-04-10T17:55:42.008Z,7.32
2023-04-10T18:02:32.217Z,5.40
2023-04-10T18:05:49.264Z,5.75
2023-04-10T18:09:14.324Z,6.50
2023-04-10T18:12:19.140Z,7.15
2023-04-10T18:15:37.311Z,5.70
2023-04-10T18:18:47.445Z,6.07
2023-04-10T18:22:19.470Z,6.13
2023-04-10T18:25:30.071Z,6.60
2023-04-10T18:28:38.773Z,5.93
2023-04-10T18:32:13.274Z,6.78
2023-04-10T18:35:20.193Z,6.73
2023-04-10T18:38:53.570Z,6.15
2023-04-10T18:42:08.693Z,7.20
2023-04-10T18:45:20.323Z,6.60
2023-04-10T18:48:27.331Z,8.13
2023-04-10T18:51:39.050Z,6.90
2023-04-10T18:54:45.976Z,5.90
2023-04-10T18:57:56.966Z,5.93
2023-04-10T19:01:00.577Z,5.85
2023-04-10T19:04:10.855Z,5.68
2023-04-10T19:07:36.225Z,6.37
2023-04-10T19:10:43.142Z,5.97
2023-04-10T19:13:50.412Z,6.10
2023-04-10T19:17:08.996Z,5.88
2023-04-10T19:20:16.973Z,5.60
2023-04-10T19:24:14.349Z,6.07
2023-04-10T19:27:51.705Z,6.32
2023-04-10T19:31:01.032Z,7.53
2023-04-10T19:34:10.030Z,6.65
2023-04-10T19:37:13.294Z,6.70
2023-04-10T19:40:19.899Z,6.53
2023-04-10T19:43:26.645Z,6.95
2023-04-10T19:46:29.883Z,7.00
2023-04-10T19:49:33.690Z,6.20
2023-04-10T19:52:35.945Z,7.70
2023-04-10T19:55:40.809Z,7.97
2023-04-10T19:58:49.557Z,7.45
2023-04-10T20:01:55.740Z,7.40
2023-04-10T20:05:01.092Z,8.27
2023-04-10T20:08:06.886Z,7.03
2023-04-10T20:11:15.690Z,7.03
2023-04-10T20:14:25.819Z,8.00
2023-04-10T20:17:40.599Z,8.02
2023-04-10T20:20:47.212Z,8.85
2023-04-10T20:24:00.065Z,8.32
2023-04-10T20:27:18.335Z,8.47
2023-04-10T20:30:27.657Z,8.27
2023-04-10T20:33:34.216Z,9.63
2023-04-10T20:36:40.442Z,7.75
2023-04-10T20:39:47.812Z,8.63
2023-04-10T20:43:05.447Z,8.40
2023-04-10T20:46:33.695Z,9.90
2023-04-10T20:49:40.225Z,9.45
2023-04-10T20:52:57.762Z,9.30
2023-04-10T20:56:19.969Z,9.18
2023-04-10T20:59:37.872Z,9.37
2023-04-10T21:02:52.282Z,8.82
2023-04-10T21:06:00.685Z,9.77
2023-04-10T21:09:23.197Z,9.55
2023-04-10T21:12:34.154Z,9.57
2023-04-10T21:15:54.935Z,9.20
2023-04-10T21:19:38.567Z,9.27
2023-04-10T21:23:06.275Z,9.73
2023-04-10T21:26:28.308Z,9.98
2023-04-10T21:29:39.782Z,9.85
2023-04-10T21:32:52.583Z,10.13
2023-04-10T21:36:14.058Z,9.80
2023-04-10T21:39:25.399Z,10.98
2023-04-10T21:42:33.736Z,10.20
2023-04-10T21:45:50.138Z,11.10
2023-04-10T21:49:04.642Z,10.07
2023-04-10T21:52:27.127Z,9.77
2023-04-10T21:55:36.172Z,9.63
2023-04-10T21:59:02.062Z,10.80
2023-04-10T22:02:13.905Z,11.07
2023-04-10T22:05:18.004Z,9.80
2023-04-10T22:08:22.949Z,10.00
2023-04-10T22:11:39.529Z,10.13
2023-04-10T22:15:06.160Z,10.00
2023-04-10T22:18:20.589Z,10.07
2023-04-10T22:21:35.494Z,10.67
2023-04-10T22:24:50.160Z,10.20
2023-04-10T22:28:15.540Z,11.48
2023-04-10T22:31:27.930Z,10.27
2023-04-10T22:34:38.501Z,11.05
2023-04-10T22:37:57.128Z,10.90
2023-04-10T22:41:13.597Z,10.98
2023-04-10T22:44:29.852Z,10.40
2023-04-10T22:47:47.970Z,10.68
2023-04-10T22:50:57.814Z,11.90
2023-04-10T22:54:06.617Z,11.80
2023-04-10T22:57:13.479Z,12.50
2023-04-10T23:00:30.298Z,11.25
2023-04-10T23:03:39.793Z,11.15
2023-04-10T23:06:48.701Z,12.43
2023-04-10T23:09:57.298Z,11.20
2023-04-10T23:13:06.982Z,12.38
2023-04-10T23:16:19.134Z,11.40
2023-04-10T23:19:26.171Z,12.82
2023-04-10T23:22:32.526Z,12.95
2023-04-10T23:25:35.598Z,12.23
2023-04-10T23:29:03.445Z,11.68
2023-04-10T23:32:08.757Z,13.75
2023-04-10T23:35:11.740Z,13.68
2023-04-10T23:38:15.216Z,13.48
2023-04-10T23:41:27.807Z,13.43
2023-04-10T23:44:35.593Z,11.90
2023-04-10T23:47:44.030Z,13.02
2023-04-10T23:50:47.682Z,12.77
2023-04-10T23:53:53.414Z,13.00
2023-04-10T23:56:56.684Z,13.50
